sensor_id;sensor_type;location;lat;lon;timestamp;P1;durP1;ratioP1;P2;durP2;ratioP2
38937;SDS011;24727;51.974;20.868;2022-12-10T00:00:34;86.90;;;41.45;;
38937;SDS011;24727;51.974;20.868;2022-12-10T00:02:59;74.90;;;36.20;;
38937;SDS011;24727;51.974;20.868;2022-12-10T00:05:26;87.53;;;42.00;;
38937;SDS011;24727;51.974;20.868;2022-12-10T00:07:53;87.10;;;41.65;;
38937;SDS011;24727;51.974;20.868;2022-12-10T00:10:19;92.15;;;44.72;;
38937;SDS011;24727;51.974;20.868;2022-12-10T00:12:45;82.05;;;42.42;;
38937;SDS011;24727;51.974;20.868;2022-12-10T00:15:11;75.90;;;37.63;;
38937;SDS011;24727;51.974;20.868;2022-12-10T00:17:44;80.32;;;38.42;;
38937;SDS011;24727;51.974;20.868;2022-12-10T00:20:10;72.47;;;36.92;;
38937;SDS011;24727;51.974;20.868;2022-12-10T00:22:42;80.13;;;39.63;;
38937;SDS011;24727;51.974;20.868;2022-12-10T00:25:08;77.93;;;38.92;;
38937;SDS011;24727;51.974;20.868;2022-12-10T00:27:34;79.50;;;39.20;;
38937;SDS011;24727;51.974;20.868;2022-12-10T00:30:01;85.55;;;40.00;;
38937;SDS011;24727;51.974;20.868;2022-12-10T00:32:27;73.47;;;36.60;;
38937;SDS011;24727;51.974;20.868;2022-12-10T00:34:53;67.30;;;35.25;;
38937;SDS011;24727;51.974;20.868;2022-12-10T00:37:20;69.85;;;35.58;;
38937;SDS011;24727;51.974;20.868;2022-12-10T00:39:47;77.28;;;38.58;;
38937;SDS011;24727;51.974;20.868;2022-12-10T00:42:20;61.00;;;31.35;;
38937;SDS011;24727;51.974;20.868;2022-12-10T00:44:46;77.05;;;38.10;;
38937;SDS011;24727;51.974;20.868;2022-12-10T00:47:12;74.50;;;40.33;;
38937;SDS011;24727;51.974;20.868;2022-12-10T00:49:38;77.20;;;37.65;;
38937;SDS011;24727;51.974;20.868;2022-12-10T00:52:04;80.97;;;37.22;;
38937;SDS011;24727;51.974;20.868;2022-12-10T00:54:30;75.13;;;38.75;;
38937;SDS011;24727;51.974;20.868;2022-12-10T00:56:56;73.05;;;36.78;;
38937;SDS011;24727;51.974;20.868;2022-12-10T00:59:23;77.50;;;38.55;;
38937;SDS011;24727;51.974;20.868;2022-12-10T01:01:49;72.10;;;36.10;;
38937;SDS011;24727;51.974;20.868;2022-12-10T01:04:15;75.55;;;37.15;;
38937;SDS011;24727;51.974;20.868;2022-12-10T01:06:44;67.75;;;33.28;;
38937;SDS011;24727;51.974;20.868;2022-12-10T01:09:12;80.60;;;38.92;;
38937;SDS011;24727;51.974;20.868;2022-12-10T01:11:41;82.80;;;39.63;;
38937;SDS011;24727;51.974;20.868;2022-12-10T01:14:10;73.75;;;36.25;;
38937;SDS011;24727;51.974;20.868;2022-12-10T01:16:38;78.60;;;35.67;;
38937;SDS011;24727;51.974;20.868;2022-12-10T01:19:06;81.45;;;38.85;;
38937;SDS011;24727;51.974;20.868;2022-12-10T01:21:32;76.80;;;37.65;;
38937;SDS011;24727;51.974;20.868;2022-12-10T01:23:59;67.82;;;33.72;;
38937;SDS011;24727;51.974;20.868;2022-12-10T01:26:27;76.40;;;37.83;;
38937;SDS011;24727;51.974;20.868;2022-12-10T01:28:56;73.45;;;33.08;;
38937;SDS011;24727;51.974;20.868;2022-12-10T01:31:24;78.13;;;36.60;;
38937;SDS011;24727;51.974;20.868;2022-12-10T01:33:57;75.18;;;35.28;;
38937;SDS011;24727;51.974;20.868;2022-12-10T01:36:30;62.97;;;32.65;;
38937;SDS011;24727;51.974;20.868;2022-12-10T01:38:59;72.93;;;35.83;;
38937;SDS011;24727;51.974;20.868;2022-12-10T01:41:27;63.10;;;31.90;;
38937;SDS011;24727;51.974;20.868;2022-12-10T01:44:02;69.57;;;35.53;;
38937;SDS011;24727;51.974;20.868;2022-12-10T01:46:49;66.85;;;35.10;;
38937;SDS011;24727;51.974;20.868;2022-12-10T01:49:25;71.55;;;33.67;;
38937;SDS011;24727;51.974;20.868;2022-12-10T01:51:56;64.45;;;32.17;;
38937;SDS011;24727;51.974;20.868;2022-12-10T01:54:34;70.45;;;32.88;;
38937;SDS011;24727;51.974;20.868;2022-12-10T01:59:38;67.25;;;32.88;;
38937;SDS011;24727;51.974;20.868;2022-12-10T02:04:47;70.07;;;33.28;;
38937;SDS011;24727;51.974;20.868;2022-12-10T02:10:30;59.15;;;27.98;;
38937;SDS011;24727;51.974;20.868;2022-12-10T02:13:30;70.60;;;33.72;;
38937;SDS011;24727;51.974;20.868;2022-12-10T02:16:04;69.70;;;32.03;;
38937;SDS011;24727;51.974;20.868;2022-12-10T02:18:39;64.03;;;30.13;;
38937;SDS011;24727;51.974;20.868;2022-12-10T02:21:16;68.95;;;33.65;;
38937;SDS011;24727;51.974;20.868;2022-12-10T02:23:52;74.10;;;32.60;;
38937;SDS011;24727;51.974;20.868;2022-12-10T02:29:20;62.05;;;30.25;;
38937;SDS011;24727;51.974;20.868;2022-12-10T02:34:30;66.80;;;31.38;;
38937;SDS011;24727;51.974;20.868;2022-12-10T02:37:22;64.38;;;31.25;;
38937;SDS011;24727;51.974;20.868;2022-12-10T02:39:54;66.32;;;32.60;;
38937;SDS011;24727;51.974;20.868;2022-12-10T02:42:23;66.10;;;30.77;;
38937;SDS011;24727;51.974;20.868;2022-12-10T02:44:51;64.57;;;30.00;;
38937;SDS011;24727;51.974;20.868;2022-12-10T02:47:20;67.50;;;31.50;;
38937;SDS011;24727;51.974;20.868;2022-12-10T02:49:47;60.45;;;29.55;;
38937;SDS011;24727;51.974;20.868;2022-12-10T02:52:17;71.70;;;32.75;;
38937;SDS011;24727;51.974;20.868;2022-12-10T02:54:45;70.07;;;31.80;;
38937;SDS011;24727;51.974;20.868;2022-12-10T03:00:25;76.40;;;33.80;;
38937;SDS011;24727;51.974;20.868;2022-12-10T03:11:18;67.68;;;31.55;;
38937;SDS011;24727;51.974;20.868;2022-12-10T03:13:41;63.92;;;29.40;;
38937;SDS011;24727;51.974;20.868;2022-12-10T03:16:18;71.35;;;33.35;;
38937;SDS011;24727;51.974;20.868;2022-12-10T03:18:47;72.70;;;33.67;;
38937;SDS011;24727;51.974;20.868;2022-12-10T03:21:21;70.85;;;32.55;;
38937;SDS011;24727;51.974;20.868;2022-12-10T03:23:51;68.07;;;31.77;;
38937;SDS011;24727;51.974;20.868;2022-12-10T03:26:17;65.88;;;31.88;;
38937;SDS011;24727;51.974;20.868;2022-12-10T03:28:52;57.17;;;29.13;;
38937;SDS011;24727;51.974;20.868;2022-12-10T03:31:24;63.70;;;30.10;;
38937;SDS011;24727;51.974;20.868;2022-12-10T03:33:52;67.68;;;32.50;;
38937;SDS011;24727;51.974;20.868;2022-12-10T03:36:21;58.72;;;27.50;;
38937;SDS011;24727;51.974;20.868;2022-12-10T03:38:48;57.65;;;28.92;;
38937;SDS011;24727;51.974;20.868;2022-12-10T03:41:16;62.92;;;28.23;;
38937;SDS011;24727;51.974;20.868;2022-12-10T03:43:53;63.50;;;30.17;;
38937;SDS011;24727;51.974;20.868;2022-12-10T03:46:21;62.53;;;28.60;;
38937;SDS011;24727;51.974;20.868;2022-12-10T03:48:48;63.40;;;30.10;;
38937;SDS011;24727;51.974;20.868;2022-12-10T03:51:14;60.95;;;28.02;;
38937;SDS011;24727;51.974;20.868;2022-12-10T03:53:41;60.45;;;27.70;;
38937;SDS011;24727;51.974;20.868;2022-12-10T03:56:09;64.35;;;28.40;;
38937;SDS011;24727;51.974;20.868;2022-12-10T03:58:35;53.22;;;27.05;;
38937;SDS011;24727;51.974;20.868;2022-12-10T04:01:02;60.63;;;29.38;;
38937;SDS011;24727;51.974;20.868;2022-12-10T04:03:29;57.70;;;26.05;;
38937;SDS011;24727;51.974;20.868;2022-12-10T04:06:00;47.78;;;24.27;;
38937;SDS011;24727;51.974;20.868;2022-12-10T04:08:32;55.22;;;26.33;;
38937;SDS011;24727;51.974;20.868;2022-12-10T04:11:03;57.17;;;24.80;;
38937;SDS011;24727;51.974;20.868;2022-12-10T04:13:31;60.03;;;27.92;;
38937;SDS011;24727;51.974;20.868;2022-12-10T04:16:20;49.65;;;23.73;;
38937;SDS011;24727;51.974;20.868;2022-12-10T04:18:54;53.50;;;25.75;;
38937;SDS011;24727;51.974;20.868;2022-12-10T04:21:32;52.05;;;23.92;;
38937;SDS011;24727;51.974;20.868;2022-12-10T04:24:18;45.83;;;23.70;;
38937;SDS011;24727;51.974;20.868;2022-12-10T04:27:06;44.40;;;22.90;;
38937;SDS011;24727;51.974;20.868;2022-12-10T04:29:38;47.85;;;21.75;;
38937;SDS011;24727;51.974;20.868;2022-12-10T04:32:04;45.67;;;20.58;;
38937;SDS011;24727;51.974;20.868;2022-12-10T04:34:31;46.70;;;21.92;;
38937;SDS011;24727;51.974;20.868;2022-12-10T04:36:58;44.97;;;22.25;;
38937;SDS011;24727;51.974;20.868;2022-12-10T04:39:25;41.33;;;20.58;;
38937;SDS011;24727;51.974;20.868;2022-12-10T04:41:51;41.90;;;20.70;;
38937;SDS011;24727;51.974;20.868;2022-12-10T04:44:17;47.55;;;22.17;;
38937;SDS011;24727;51.974;20.868;2022-12-10T04:46:44;41.88;;;20.05;;
38937;SDS011;24727;51.974;20.868;2022-12-10T04:49:10;43.38;;;21.50;;
38937;SDS011;24727;51.974;20.868;2022-12-10T04:51:36;41.80;;;19.85;;
38937;SDS011;24727;51.974;20.868;2022-12-10T04:54:03;44.45;;;20.77;;
38937;SDS011;24727;51.974;20.868;2022-12-10T04:56:32;47.72;;;23.92;;
38937;SDS011;24727;51.974;20.868;2022-12-10T04:59:00;44.65;;;22.50;;
38937;SDS011;24727;51.974;20.868;2022-12-10T05:01:26;45.22;;;21.23;;
38937;SDS011;24727;51.974;20.868;2022-12-10T05:03:53;46.00;;;20.63;;
38937;SDS011;24727;51.974;20.868;2022-12-10T05:06:20;46.75;;;22.13;;
38937;SDS011;24727;51.974;20.868;2022-12-10T05:08:47;42.83;;;21.40;;
38937;SDS011;24727;51.974;20.868;2022-12-10T05:11:15;44.63;;;20.35;;
38937;SDS011;24727;51.974;20.868;2022-12-10T05:13:43;45.00;;;22.00;;
38937;SDS011;24727;51.974;20.868;2022-12-10T05:16:10;39.90;;;19.08;;
38937;SDS011;24727;51.974;20.868;2022-12-10T05:18:37;43.03;;;19.50;;
38937;SDS011;24727;51.974;20.868;2022-12-10T05:21:04;46.40;;;18.63;;
38937;SDS011;24727;51.974;20.868;2022-12-10T05:23:33;39.63;;;18.65;;
38937;SDS011;24727;51.974;20.868;2022-12-10T05:28:33;44.92;;;21.17;;
38937;SDS011;24727;51.974;20.868;2022-12-10T05:31:04;38.63;;;19.23;;
38937;SDS011;24727;51.974;20.868;2022-12-10T05:33:31;41.78;;;19.15;;
38937;SDS011;24727;51.974;20.868;2022-12-10T05:36:01;39.40;;;19.52;;
38937;SDS011;24727;51.974;20.868;2022-12-10T05:38:29;45.33;;;21.27;;
38937;SDS011;24727;51.974;20.868;2022-12-10T05:41:07;41.33;;;21.00;;
38937;SDS011;24727;51.974;20.868;2022-12-10T05:43:38;39.40;;;21.30;;
38937;SDS011;24727;51.974;20.868;2022-12-10T05:46:06;41.00;;;19.83;;
38937;SDS011;24727;51.974;20.868;2022-12-10T05:48:36;46.08;;;20.70;;
38937;SDS011;24727;51.974;20.868;2022-12-10T05:51:04;34.08;;;17.60;;
38937;SDS011;24727;51.974;20.868;2022-12-10T05:53:33;43.80;;;20.67;;
38937;SDS011;24727;51.974;20.868;2022-12-10T05:56:00;49.10;;;20.45;;
38937;SDS011;24727;51.974;20.868;2022-12-10T05:58:28;43.40;;;20.52;;
38937;SDS011;24727;51.974;20.868;2022-12-10T06:00:55;44.72;;;18.42;;
38937;SDS011;24727;51.974;20.868;2022-12-10T06:03:24;43.22;;;21.30;;
38937;SDS011;24727;51.974;20.868;2022-12-10T06:05:52;42.63;;;19.63;;
38937;SDS011;24727;51.974;20.868;2022-12-10T06:08:19;44.97;;;19.90;;
38937;SDS011;24727;51.974;20.868;2022-12-10T06:10:47;41.17;;;18.83;;
38937;SDS011;24727;51.974;20.868;2022-12-10T06:13:13;36.05;;;17.40;;
38937;SDS011;24727;51.974;20.868;2022-12-10T06:15:39;38.80;;;18.70;;
38937;SDS011;24727;51.974;20.868;2022-12-10T06:18:06;40.92;;;18.00;;
38937;SDS011;24727;51.974;20.868;2022-12-10T06:20:33;42.25;;;18.02;;
38937;SDS011;24727;51.974;20.868;2022-12-10T06:23:00;37.95;;;18.25;;
38937;SDS011;24727;51.974;20.868;2022-12-10T06:25:26;38.00;;;17.42;;
38937;SDS011;24727;51.974;20.868;2022-12-10T06:27:53;43.22;;;18.50;;
38937;SDS011;24727;51.974;20.868;2022-12-10T06:30:20;40.75;;;17.10;;
38937;SDS011;24727;51.974;20.868;2022-12-10T06:32:46;40.28;;;17.35;;
38937;SDS011;24727;51.974;20.868;2022-12-10T06:35:14;38.83;;;16.80;;
38937;SDS011;24727;51.974;20.868;2022-12-10T06:37:40;39.30;;;17.90;;
38937;SDS011;24727;51.974;20.868;2022-12-10T06:40:06;39.42;;;17.83;;
38937;SDS011;24727;51.974;20.868;2022-12-10T06:42:34;42.45;;;18.85;;
38937;SDS011;24727;51.974;20.868;2022-12-10T06:45:00;42.17;;;16.45;;
38937;SDS011;24727;51.974;20.868;2022-12-10T06:47:28;39.30;;;15.75;;
38937;SDS011;24727;51.974;20.868;2022-12-10T06:49:55;36.67;;;16.65;;
38937;SDS011;24727;51.974;20.868;2022-12-10T06:52:21;35.80;;;16.33;;
38937;SDS011;24727;51.974;20.868;2022-12-10T06:54:47;39.80;;;16.10;;
38937;SDS011;24727;51.974;20.868;2022-12-10T06:57:13;39.50;;;17.63;;
38937;SDS011;24727;51.974;20.868;2022-12-10T06:59:39;37.55;;;16.92;;
38937;SDS011;24727;51.974;20.868;2022-12-10T07:02:05;31.73;;;15.00;;
38937;SDS011;24727;51.974;20.868;2022-12-10T07:04:31;33.38;;;15.95;;
38937;SDS011;24727;51.974;20.868;2022-12-10T07:06:58;38.00;;;17.17;;
38937;SDS011;24727;51.974;20.868;2022-12-10T07:09:24;38.08;;;17.27;;
38937;SDS011;24727;51.974;20.868;2022-12-10T07:11:51;34.60;;;15.90;;
38937;SDS011;24727;51.974;20.868;2022-12-10T07:14:17;41.15;;;17.30;;
38937;SDS011;24727;51.974;20.868;2022-12-10T07:16:45;37.58;;;17.13;;
38937;SDS011;24727;51.974;20.868;2022-12-10T07:19:13;38.88;;;17.08;;
38937;SDS011;24727;51.974;20.868;2022-12-10T07:21:41;38.88;;;17.65;;
38937;SDS011;24727;51.974;20.868;2022-12-10T07:24:10;41.35;;;16.55;;
38937;SDS011;24727;51.974;20.868;2022-12-10T07:26:38;37.30;;;17.33;;
38937;SDS011;24727;51.974;20.868;2022-12-10T07:29:07;36.63;;;16.35;;
38937;SDS011;24727;51.974;20.868;2022-12-10T07:31:36;41.25;;;16.77;;
38937;SDS011;24727;51.974;20.868;2022-12-10T07:34:03;35.75;;;15.88;;
38937;SDS011;24727;51.974;20.868;2022-12-10T07:36:30;41.25;;;16.38;;
38937;SDS011;24727;51.974;20.868;2022-12-10T07:38:57;34.70;;;15.98;;
38937;SDS011;24727;51.974;20.868;2022-12-10T07:41:25;34.30;;;16.73;;
38937;SDS011;24727;51.974;20.868;2022-12-10T07:43:51;32.47;;;14.52;;
38937;SDS011;24727;51.974;20.868;2022-12-10T07:46:22;34.78;;;15.45;;
38937;SDS011;24727;51.974;20.868;2022-12-10T07:48:58;33.30;;;15.93;;
38937;SDS011;24727;51.974;20.868;2022-12-10T07:51:28;35.15;;;16.25;;
38937;SDS011;24727;51.974;20.868;2022-12-10T07:53:55;37.28;;;16.27;;
38937;SDS011;24727;51.974;20.868;2022-12-10T07:56:22;33.60;;;15.20;;
38937;SDS011;24727;51.974;20.868;2022-12-10T07:58:50;33.72;;;16.05;;
38937;SDS011;24727;51.974;20.868;2022-12-10T08:01:21;38.47;;;16.00;;
38937;SDS011;24727;51.974;20.868;2022-12-10T08:03:49;32.80;;;15.30;;
38937;SDS011;24727;51.974;20.868;2022-12-10T08:06:19;36.72;;;16.42;;
38937;SDS011;24727;51.974;20.868;2022-12-10T08:08:47;42.42;;;16.95;;
38937;SDS011;24727;51.974;20.868;2022-12-10T08:11:15;46.15;;;18.88;;
38937;SDS011;24727;51.974;20.868;2022-12-10T08:13:43;39.38;;;17.45;;
38937;SDS011;24727;51.974;20.868;2022-12-10T08:16:14;37.28;;;16.60;;
38937;SDS011;24727;51.974;20.868;2022-12-10T08:18:44;35.65;;;14.32;;
38937;SDS011;24727;51.974;20.868;2022-12-10T08:21:20;33.92;;;14.82;;
38937;SDS011;24727;51.974;20.868;2022-12-10T08:23:48;42.78;;;16.98;;
38937;SDS011;24727;51.974;20.868;2022-12-10T08:26:16;47.60;;;18.35;;
38937;SDS011;24727;51.974;20.868;2022-12-10T08:28:45;41.22;;;18.55;;
38937;SDS011;24727;51.974;20.868;2022-12-10T08:31:13;41.15;;;17.02;;
38937;SDS011;24727;51.974;20.868;2022-12-10T08:33:41;43.00;;;17.55;;
38937;SDS011;24727;51.974;20.868;2022-12-10T08:36:13;52.13;;;20.83;;
38937;SDS011;24727;51.974;20.868;2022-12-10T08:38:41;51.90;;;17.98;;
38937;SDS011;24727;51.974;20.868;2022-12-10T08:41:10;56.33;;;21.35;;
38937;SDS011;24727;51.974;20.868;2022-12-10T08:43:39;48.30;;;17.65;;
38937;SDS011;24727;51.974;20.868;2022-12-10T08:46:07;38.20;;;15.13;;
38937;SDS011;24727;51.974;20.868;2022-12-10T08:48:35;45.20;;;16.40;;
38937;SDS011;24727;51.974;20.868;2022-12-10T08:51:03;49.05;;;17.52;;
38937;SDS011;24727;51.974;20.868;2022-12-10T08:53:31;45.42;;;18.02;;
38937;SDS011;24727;51.974;20.868;2022-12-10T08:55:57;60.13;;;21.92;;
38937;SDS011;24727;51.974;20.868;2022-12-10T08:58:23;51.20;;;18.95;;
38937;SDS011;24727;51.974;20.868;2022-12-10T09:00:49;50.60;;;18.58;;
38937;SDS011;24727;51.974;20.868;2022-12-10T09:03:19;55.78;;;18.73;;
38937;SDS011;24727;51.974;20.868;2022-12-10T09:05:46;45.45;;;17.02;;
38937;SDS011;24727;51.974;20.868;2022-12-10T09:08:13;46.55;;;17.15;;
38937;SDS011;24727;51.974;20.868;2022-12-10T09:10:41;45.17;;;18.20;;
38937;SDS011;24727;51.974;20.868;2022-12-10T09:13:08;34.85;;;14.25;;
38937;SDS011;24727;51.974;20.868;2022-12-10T09:15:34;45.25;;;18.75;;
38937;SDS011;24727;51.974;20.868;2022-12-10T09:18:00;41.67;;;17.67;;
38937;SDS011;24727;51.974;20.868;2022-12-10T09:20:26;48.15;;;19.77;;
38937;SDS011;24727;51.974;20.868;2022-12-10T09:22:53;46.35;;;17.15;;
38937;SDS011;24727;51.974;20.868;2022-12-10T09:25:19;47.15;;;18.20;;
38937;SDS011;24727;51.974;20.868;2022-12-10T09:27:48;47.65;;;16.35;;
38937;SDS011;24727;51.974;20.868;2022-12-10T09:30:15;46.75;;;18.67;;
38937;SDS011;24727;51.974;20.868;2022-12-10T09:32:43;37.60;;;15.43;;
38937;SDS011;24727;51.974;20.868;2022-12-10T09:35:09;47.85;;;18.77;;
38937;SDS011;24727;51.974;20.868;2022-12-10T09:37:35;40.42;;;16.73;;
38937;SDS011;24727;51.974;20.868;2022-12-10T09:40:02;50.67;;;19.90;;
38937;SDS011;24727;51.974;20.868;2022-12-10T09:45:36;48.10;;;18.52;;
38937;SDS011;24727;51.974;20.868;2022-12-10T09:48:33;48.75;;;18.75;;
38937;SDS011;24727;51.974;20.868;2022-12-10T09:51:11;48.42;;;17.70;;
38937;SDS011;24727;51.974;20.868;2022-12-10T09:53:53;43.65;;;16.90;;
38937;SDS011;24727;51.974;20.868;2022-12-10T09:56:35;43.80;;;17.20;;
38937;SDS011;24727;51.974;20.868;2022-12-10T09:59:12;44.42;;;18.75;;
38937;SDS011;24727;51.974;20.868;2022-12-10T10:04:53;48.50;;;19.70;;
38937;SDS011;24727;51.974;20.868;2022-12-10T10:07:54;77.55;;;34.92;;
38937;SDS011;24727;51.974;20.868;2022-12-10T10:10:27;43.65;;;15.82;;
38937;SDS011;24727;51.974;20.868;2022-12-10T10:15:35;44.72;;;18.70;;
38937;SDS011;24727;51.974;20.868;2022-12-10T10:21:11;43.20;;;16.83;;
38937;SDS011;24727;51.974;20.868;2022-12-10T10:23:45;54.30;;;21.77;;
38937;SDS011;24727;51.974;20.868;2022-12-10T10:26:13;43.20;;;16.55;;
38937;SDS011;24727;51.974;20.868;2022-12-10T10:28:40;38.88;;;16.88;;
38937;SDS011;24727;51.974;20.868;2022-12-10T10:31:16;44.30;;;18.30;;
38937;SDS011;24727;51.974;20.868;2022-12-10T10:33:51;42.63;;;15.32;;
38937;SDS011;24727;51.974;20.868;2022-12-10T10:36:35;38.85;;;15.85;;
38937;SDS011;24727;51.974;20.868;2022-12-10T10:41:49;49.88;;;17.85;;
38937;SDS011;24727;51.974;20.868;2022-12-10T10:44:19;31.17;;;13.50;;
38937;SDS011;24727;51.974;20.868;2022-12-10T10:46:47;48.55;;;17.98;;
38937;SDS011;24727;51.974;20.868;2022-12-10T10:51:49;49.10;;;19.33;;
38937;SDS011;24727;51.974;20.868;2022-12-10T10:54:57;47.85;;;17.52;;
38937;SDS011;24727;51.974;20.868;2022-12-10T10:57:14;43.80;;;17.27;;
38937;SDS011;24727;51.974;20.868;2022-12-10T10:59:42;43.15;;;18.30;;
38937;SDS011;24727;51.974;20.868;2022-12-10T11:07:57;53.78;;;22.23;;
38937;SDS011;24727;51.974;20.868;2022-12-10T11:10:29;55.67;;;22.80;;
38937;SDS011;24727;51.974;20.868;2022-12-10T11:15:34;52.85;;;19.27;;
38937;SDS011;24727;51.974;20.868;2022-12-10T11:18:23;45.72;;;18.25;;
38937;SDS011;24727;51.974;20.868;2022-12-10T11:21:03;51.53;;;20.20;;
38937;SDS011;24727;51.974;20.868;2022-12-10T11:23:42;50.83;;;21.17;;
38937;SDS011;24727;51.974;20.868;2022-12-10T11:34:35;49.25;;;18.75;;
38937;SDS011;24727;51.974;20.868;2022-12-10T11:54:10;41.88;;;17.27;;
38937;SDS011;24727;51.974;20.868;2022-12-10T11:57:32;47.35;;;18.23;;
38937;SDS011;24727;51.974;20.868;2022-12-10T11:59:43;47.10;;;18.65;;
38937;SDS011;24727;51.974;20.868;2022-12-10T12:08:33;47.00;;;19.35;;
38937;SDS011;24727;51.974;20.868;2022-12-10T12:14:07;39.28;;;16.40;;
38937;SDS011;24727;51.974;20.868;2022-12-10T12:17:01;41.72;;;18.25;;
38937;SDS011;24727;51.974;20.868;2022-12-10T12:19:57;42.17;;;17.73;;
38937;SDS011;24727;51.974;20.868;2022-12-10T12:22:34;41.35;;;15.52;;
38937;SDS011;24727;51.974;20.868;2022-12-10T12:25:10;33.72;;;14.38;;
38937;SDS011;24727;51.974;20.868;2022-12-10T12:28:09;43.13;;;16.92;;
38937;SDS011;24727;51.974;20.868;2022-12-10T12:30:37;39.67;;;17.23;;
38937;SDS011;24727;51.974;20.868;2022-12-10T12:33:11;41.13;;;17.80;;
38937;SDS011;24727;51.974;20.868;2022-12-10T12:38:22;41.60;;;18.05;;
38937;SDS011;24727;51.974;20.868;2022-12-10T12:40:57;38.97;;;16.92;;
38937;SDS011;24727;51.974;20.868;2022-12-10T12:49:38;45.22;;;19.95;;
38937;SDS011;24727;51.974;20.868;2022-12-10T12:51:57;39.83;;;17.02;;
38937;SDS011;24727;51.974;20.868;2022-12-10T12:54:36;37.67;;;17.30;;
38937;SDS011;24727;51.974;20.868;2022-12-10T13:05:32;43.47;;;19.70;;
38937;SDS011;24727;51.974;20.868;2022-12-10T13:10:56;37.90;;;17.25;;
38937;SDS011;24727;51.974;20.868;2022-12-10T13:40:22;55.25;;;25.02;;
38937;SDS011;24727;51.974;20.868;2022-12-10T13:43:35;45.35;;;19.25;;
38937;SDS011;24727;51.974;20.868;2022-12-10T13:46:23;51.05;;;21.85;;
38937;SDS011;24727;51.974;20.868;2022-12-10T13:48:53;51.28;;;23.10;;
38937;SDS011;24727;51.974;20.868;2022-12-10T13:57:04;50.92;;;20.60;;
38937;SDS011;24727;51.974;20.868;2022-12-10T14:08:38;72.00;;;27.92;;
38937;SDS011;24727;51.974;20.868;2022-12-10T14:11:08;66.22;;;27.67;;
38937;SDS011;24727;51.974;20.868;2022-12-10T14:13:44;75.50;;;28.33;;
38937;SDS011;24727;51.974;20.868;2022-12-10T14:16:13;81.00;;;30.75;;
38937;SDS011;24727;51.974;20.868;2022-12-10T14:18:45;73.57;;;28.30;;
38937;SDS011;24727;51.974;20.868;2022-12-10T14:21:24;61.03;;;24.30;;
38937;SDS011;24727;51.974;20.868;2022-12-10T14:23:51;73.97;;;28.48;;
38937;SDS011;24727;51.974;20.868;2022-12-10T14:26:22;71.13;;;26.80;;
38937;SDS011;24727;51.974;20.868;2022-12-10T14:29:00;73.22;;;28.13;;
38937;SDS011;24727;51.974;20.868;2022-12-10T14:31:36;55.92;;;22.63;;
38937;SDS011;24727;51.974;20.868;2022-12-10T14:34:10;84.10;;;33.58;;
38937;SDS011;24727;51.974;20.868;2022-12-10T14:36:44;65.05;;;26.60;;
38937;SDS011;24727;51.974;20.868;2022-12-10T14:39:28;69.07;;;29.40;;
38937;SDS011;24727;51.974;20.868;2022-12-10T14:42:09;69.97;;;30.50;;
38937;SDS011;24727;51.974;20.868;2022-12-10T14:44:51;61.00;;;27.15;;
38937;SDS011;24727;51.974;20.868;2022-12-10T14:47:25;58.03;;;23.98;;
38937;SDS011;24727;51.974;20.868;2022-12-10T14:49:53;58.22;;;25.38;;
38937;SDS011;24727;51.974;20.868;2022-12-10T14:55:17;53.88;;;23.45;;
38937;SDS011;24727;51.974;20.868;2022-12-10T14:57:49;56.15;;;24.60;;
38937;SDS011;24727;51.974;20.868;2022-12-10T15:00:26;54.65;;;22.75;;
38937;SDS011;24727;51.974;20.868;2022-12-10T15:08:35;56.13;;;24.15;;
38937;SDS011;24727;51.974;20.868;2022-12-10T15:11:02;60.03;;;23.15;;
38937;SDS011;24727;51.974;20.868;2022-12-10T15:16:04;75.32;;;31.85;;
38937;SDS011;24727;51.974;20.868;2022-12-10T15:18:41;71.65;;;29.27;;
38937;SDS011;24727;51.974;20.868;2022-12-10T15:21:19;68.43;;;28.30;;
38937;SDS011;24727;51.974;20.868;2022-12-10T15:23:47;64.85;;;24.90;;
38937;SDS011;24727;51.974;20.868;2022-12-10T15:26:18;72.32;;;29.27;;
38937;SDS011;24727;51.974;20.868;2022-12-10T15:28:48;61.45;;;26.17;;
38937;SDS011;24727;51.974;20.868;2022-12-10T15:33:56;57.58;;;23.15;;
38937;SDS011;24727;51.974;20.868;2022-12-10T15:36:35;62.85;;;24.70;;
38937;SDS011;24727;51.974;20.868;2022-12-10T15:41:49;62.20;;;23.35;;
38937;SDS011;24727;51.974;20.868;2022-12-10T15:49:54;48.80;;;20.80;;
38937;SDS011;24727;51.974;20.868;2022-12-10T15:52:25;55.22;;;23.10;;
38937;SDS011;24727;51.974;20.868;2022-12-10T15:54:54;51.38;;;21.63;;
38937;SDS011;24727;51.974;20.868;2022-12-10T15:57:24;92.57;;;36.00;;
38937;SDS011;24727;51.974;20.868;2022-12-10T15:59:59;85.35;;;30.50;;
38937;SDS011;24727;51.974;20.868;2022-12-10T16:05:29;66.68;;;27.20;;
38937;SDS011;24727;51.974;20.868;2022-12-10T16:08:00;70.68;;;27.33;;
38937;SDS011;24727;51.974;20.868;2022-12-10T16:10:39;72.63;;;26.70;;
38937;SDS011;24727;51.974;20.868;2022-12-10T16:13:06;79.28;;;28.25;;
38937;SDS011;24727;51.974;20.868;2022-12-10T16:15:48;85.30;;;28.10;;
38937;SDS011;24727;51.974;20.868;2022-12-10T16:18:17;78.10;;;29.77;;
38937;SDS011;24727;51.974;20.868;2022-12-10T16:20:44;70.45;;;26.08;;
38937;SDS011;24727;51.974;20.868;2022-12-10T16:23:12;61.40;;;25.88;;
38937;SDS011;24727;51.974;20.868;2022-12-10T16:25:39;70.60;;;25.63;;
38937;SDS011;24727;51.974;20.868;2022-12-10T16:28:11;58.65;;;23.70;;
38937;SDS011;24727;51.974;20.868;2022-12-10T16:30:44;51.40;;;22.75;;
38937;SDS011;24727;51.974;20.868;2022-12-10T16:33:16;110.80;;;36.55;;
38937;SDS011;24727;51.974;20.868;2022-12-10T16:35:44;57.25;;;23.70;;
38937;SDS011;24727;51.974;20.868;2022-12-10T16:38:15;46.42;;;22.15;;
38937;SDS011;24727;51.974;20.868;2022-12-10T16:40:45;43.63;;;19.95;;
38937;SDS011;24727;51.974;20.868;2022-12-10T16:43:14;108.60;;;36.33;;
38937;SDS011;24727;51.974;20.868;2022-12-10T16:45:44;73.53;;;29.42;;
38937;SDS011;24727;51.974;20.868;2022-12-10T16:48:11;59.00;;;25.85;;
38937;SDS011;24727;51.974;20.868;2022-12-10T16:50:38;65.93;;;29.40;;
38937;SDS011;24727;51.974;20.868;2022-12-10T16:53:20;53.63;;;23.20;;
38937;SDS011;24727;51.974;20.868;2022-12-10T16:55:47;47.42;;;23.58;;
38937;SDS011;24727;51.974;20.868;2022-12-10T16:58:14;43.28;;;21.10;;
38937;SDS011;24727;51.974;20.868;2022-12-10T17:00:42;44.67;;;20.80;;
38937;SDS011;24727;51.974;20.868;2022-12-10T17:03:16;39.42;;;20.45;;
38937;SDS011;24727;51.974;20.868;2022-12-10T17:05:48;58.38;;;24.77;;
38937;SDS011;24727;51.974;20.868;2022-12-10T17:08:38;52.95;;;22.98;;
38937;SDS011;24727;51.974;20.868;2022-12-10T17:11:09;45.78;;;21.42;;
38937;SDS011;24727;51.974;20.868;2022-12-10T17:14:03;72.88;;;28.98;;
38937;SDS011;24727;51.974;20.868;2022-12-10T17:16:30;49.85;;;20.40;;
38937;SDS011;24727;51.974;20.868;2022-12-10T17:18:57;115.60;;;36.42;;
38937;SDS011;24727;51.974;20.868;2022-12-10T17:21:25;102.68;;;32.30;;
38937;SDS011;24727;51.974;20.868;2022-12-10T17:23:52;89.72;;;33.08;;